Time;durP1;ratioP1;P1;durP2;ratioP2;P2;SDS_P1;SDS_P2;PMS_P1;PMS_P2;Temp;Humidity;BMP_temperature;BMP_pressure;BME280_temperature;BME280_humidity;BME280_pressure;Samples;Min_cycle;Max_cycle;Signal;HPM_P1;HPM_P2
2023/09/03 00:01:53;;;;;;;3.77;2.03;;;19.70;99.90;;;;;;4983275;28;20524;-67
2023/09/03 00:04:20;;;;;;;4.60;1.67;;;19.60;99.90;;;;;;5001430;28;20895;-67
2023/09/03 00:06:47;;;;;;;3.03;1.83;;;19.60;99.90;;;;;;4980014;28;21109;-67
2023/09/03 00:09:17;;;;;;;2.53;1.60;;;19.60;99.90;;;;;;4997237;28;20564;-66
2023/09/03 00:11:44;;;;;;;4.03;1.50;;;19.50;99.90;;;;;;4997197;28;21069;-67
2023/09/03 00:14:11;;;;;;;2.93;1.40;;;19.50;99.90;;;;;;4979247;28;20463;-67
2023/09/03 00:16:38;;;;;;;2.30;1.53;;;19.50;99.90;;;;;;4978751;28;20484;-67
2023/09/03 00:19:05;;;;;;;3.40;1.53;;;19.50;99.90;;;;;;4990799;28;20548;-67
2023/09/03 00:21:32;;;;;;;5.67;1.87;;;19.40;99.90;;;;;;5005568;28;20563;-67
2023/09/03 00:23:59;;;;;;;2.50;1.80;;;19.40;99.90;;;;;;4983671;28;20485;-67
2023/09/03 00:26:27;;;;;;;2.03;1.40;;;19.40;99.90;;;;;;4995168;28;20561;-67
2023/09/03 00:28:54;;;;;;;2.47;1.70;;;19.40;99.90;;;;;;4994577;28;20480;-67
2023/09/03 00:31:23;;;;;;;1.90;1.47;;;19.30;99.90;;;;;;4992223;28;20566;-66
2023/09/03 00:33:50;;;;;;;3.93;1.80;;;19.30;99.90;;;;;;4984592;28;20489;-66
2023/09/03 00:36:17;;;;;;;2.40;1.33;;;19.30;99.90;;;;;;4978639;28;20486;-66
2023/09/03 00:38:44;;;;;;;2.20;1.70;;;19.30;99.90;;;;;;4984644;28;20805;-66
2023/09/03 00:41:11;;;;;;;3.80;2.07;;;19.20;99.90;;;;;;4981845;28;20460;-66
2023/09/03 00:43:39;;;;;;;3.50;1.97;;;19.20;99.90;;;;;;5010277;28;20894;-67
2023/09/03 00:46:08;;;;;;;2.47;2.03;;;19.20;99.90;;;;;;4982882;28;20506;-67
2023/09/03 00:48:36;;;;;;;6.50;2.20;;;19.20;99.90;;;;;;4992590;28;20481;-67
2023/09/03 00:51:07;;;;;;;7.70;2.37;;;19.30;99.90;;;;;;4995899;28;20473;-66
2023/09/03 00:53:36;;;;;;;5.30;3.00;;;19.30;99.90;;;;;;4997194;28;20476;-66
2023/09/03 00:56:03;;;;;;;4.97;2.90;;;19.30;99.90;;;;;;4986156;28;20482;-66
2023/09/03 00:58:30;;;;;;;4.73;3.17;;;19.40;99.90;;;;;;4993820;28;20482;-66
2023/09/03 01:00:58;;;;;;;6.90;3.17;;;19.40;99.90;;;;;;4996223;28;20490;-68
2023/09/03 01:03:26;;;;;;;3.40;2.77;;;19.40;99.90;;;;;;4989551;28;20884;-68
2023/09/03 01:05:53;;;;;;;3.37;2.50;;;19.40;99.90;;;;;;4986256;28;21200;-68
2023/09/03 01:08:20;;;;;;;3.13;2.50;;;19.50;99.90;;;;;;4999486;28;20485;-68
2023/09/03 01:10:54;;;;;;;3.10;2.17;;;19.50;99.90;;;;;;4990228;28;20990;-68
2023/09/03 01:13:26;;;;;;;6.13;2.40;;;19.40;99.90;;;;;;5010771;28;20561;-68
2023/09/03 01:15:54;;;;;;;3.50;2.57;;;19.40;99.90;;;;;;4983277;28;20957;-68
2023/09/03 01:18:26;;;;;;;4.53;3.40;;;19.40;99.90;;;;;;4987885;28;20580;-68
2023/09/03 01:21:14;;;;;;;3.30;2.73;;;19.40;99.90;;;;;;4985085;28;20510;-67
2023/09/03 01:23:47;;;;;;;3.30;2.50;;;19.40;99.90;;;;;;4977202;28;20474;-68
2023/09/03 01:26:27;;;;;;;4.00;2.50;;;19.40;99.90;;;;;;4985482;28;20480;-67
2023/09/03 01:28:56;;;;;;;3.33;2.70;;;19.30;99.90;;;;;;4987991;28;20512;-67
2023/09/03 01:31:24;;;;;;;2.70;2.50;;;19.30;99.90;;;;;;4994567;28;20853;-67
2023/09/03 01:33:51;;;;;;;4.47;2.30;;;19.30;99.90;;;;;;4983224;28;20493;-68
2023/09/03 01:36:19;;;;;;;2.93;2.63;;;19.30;99.90;;;;;;4994902;28;20490;-67
2023/09/03 01:38:46;;;;;;;3.50;2.90;;;19.30;99.90;;;;;;4997108;28;20469;-67
2023/09/03 01:41:13;;;;;;;4.33;2.80;;;19.30;99.90;;;;;;5002012;28;20492;-68
2023/09/03 01:43:41;;;;;;;6.60;3.00;;;19.30;99.90;;;;;;4971976;28;20580;-67
2023/09/03 01:46:12;;;;;;;6.17;2.90;;;19.30;99.90;;;;;;5009631;28;20478;-67
2023/09/03 01:48:54;;;;;;;3.60;2.67;;;19.30;99.90;;;;;;4990517;28;20910;-68
2023/09/03 01:51:29;;;;;;;3.77;3.03;;;19.30;99.90;;;;;;4990858;28;20739;-68
2023/09/03 01:54:03;;;;;;;2.47;2.27;;;19.30;99.90;;;;;;4989080;28;21079;-67
2023/09/03 01:56:33;;;;;;;2.93;2.60;;;19.30;99.90;;;;;;4986147;28;20481;-68
2023/09/03 01:59:12;;;;;;;3.70;2.87;;;19.30;99.90;;;;;;4995680;28;20474;-67
2023/09/03 02:01:41;;;;;;;3.80;3.20;;;19.20;99.90;;;;;;4991754;28;20476;-68
2023/09/03 02:04:08;;;;;;;4.67;3.23;;;19.20;99.90;;;;;;4992613;28;20581;-68
2023/09/03 02:06:34;;;;;;;5.50;3.27;;;19.20;99.90;;;;;;4988990;28;20919;-67
2023/09/03 02:09:01;;;;;;;2.23;1.80;;;19.20;99.90;;;;;;4987430;28;20477;-67
2023/09/03 02:11:28;;;;;;;3.80;1.67;;;19.10;99.90;;;;;;4994245;28;20440;-67
2023/09/03 02:13:55;;;;;;;2.67;1.87;;;18.90;99.90;;;;;;4985496;28;20490;-68
2023/09/03 02:16:22;;;;;;;2.83;1.87;;;18.80;99.90;;;;;;4990339;28;20481;-67
2023/09/03 02:18:51;;;;;;;2.43;1.77;;;18.70;99.90;;;;;;4986452;28;20520;-67
2023/09/03 02:21:17;;;;;;;3.80;2.23;;;18.40;99.90;;;;;;4993792;28;21046;-67
2023/09/03 02:23:44;;;;;;;3.57;2.60;;;18.30;99.90;;;;;;4982854;28;21195;-67
2023/09/03 02:26:11;;;;;;;3.43;2.50;;;18.30;99.90;;;;;;4992233;28;20487;-67
2023/09/03 02:28:39;;;;;;;3.43;2.60;;;18.30;99.90;;;;;;4995793;28;21059;-68
2023/09/03 02:31:06;;;;;;;5.53;3.30;;;18.40;99.90;;;;;;4992256;28;20473;-66
2023/09/03 02:33:33;;;;;;;3.37;2.57;;;18.40;99.90;;;;;;4998955;28;20503;-66
2023/09/03 02:36:02;;;;;;;2.80;2.20;;;18.50;99.90;;;;;;4989281;28;20490;-66
2023/09/03 02:38:29;;;;;;;9.23;2.97;;;18.50;99.90;;;;;;4990987;28;21275;-66
2023/09/03 02:40:55;;;;;;;2.50;1.37;;;18.60;99.90;;;;;;5001317;28;20487;-66
2023/09/03 02:43:23;;;;;;;4.20;2.37;;;18.60;99.90;;;;;;4989142;28;20485;-66
2023/09/03 02:45:50;;;;;;;3.00;2.60;;;18.70;99.90;;;;;;4992967;28;20501;-66
2023/09/03 02:48:17;;;;;;;2.10;1.50;;;18.60;99.90;;;;;;4984080;28;21105;-66
2023/09/03 02:50:44;;;;;;;3.00;1.83;;;18.50;99.90;;;;;;4983480;28;20497;-65
2023/09/03 02:53:12;;;;;;;2.40;1.90;;;18.40;99.90;;;;;;4998661;28;20520;-66
2023/09/03 02:55:39;;;;;;;3.63;2.30;;;18.20;99.90;;;;;;4991878;28;20522;-66
2023/09/03 02:58:07;;;;;;;3.00;1.90;;;18.10;99.90;;;;;;4992806;28;20526;-66
2023/09/03 03:00:35;;;;;;;4.07;2.73;;;18.00;99.90;;;;;;4993708;28;20481;-66
2023/09/03 03:03:02;;;;;;;5.03;2.60;;;18.00;99.90;;;;;;4989721;28;20482;-66
2023/09/03 03:05:29;;;;;;;3.03;1.90;;;18.10;99.90;;;;;;4984431;28;20478;-66
2023/09/03 03:07:58;;;;;;;6.20;2.60;;;18.10;99.90;;;;;;4991574;28;20486;-66
2023/09/03 03:10:27;;;;;;;5.70;2.40;;;18.20;99.90;;;;;;4994401;28;20486;-66
2023/09/03 03:12:53;;;;;;;3.80;2.63;;;18.20;99.90;;;;;;4984547;28;20973;-66
2023/09/03 03:15:20;;;;;;;2.70;2.20;;;18.10;99.90;;;;;;4986131;28;20478;-66
2023/09/03 03:17:47;;;;;;;3.50;2.40;;;18.10;99.90;;;;;;4996762;28;21036;-66
2023/09/03 03:20:14;;;;;;;2.60;1.80;;;17.90;99.90;;;;;;4986898;28;20484;-66
2023/09/03 03:22:41;;;;;;;4.10;2.10;;;17.80;99.90;;;;;;4991432;28;20484;-67
2023/09/03 03:25:08;;;;;;;3.33;2.33;;;17.70;99.90;;;;;;4978188;28;20953;-66
2023/09/03 03:27:37;;;;;;;5.57;2.93;;;17.80;99.90;;;;;;5004546;28;20518;-66
2023/09/03 03:30:06;;;;;;;2.90;2.60;;;17.70;99.90;;;;;;4980642;28;21032;-66
2023/09/03 03:32:32;;;;;;;2.90;2.70;;;17.80;99.90;;;;;;4984038;28;20485;-66
2023/09/03 03:34:59;;;;;;;6.53;2.77;;;17.90;99.90;;;;;;4987422;28;20479;-66
2023/09/03 03:37:26;;;;;;;2.83;2.50;;;17.80;99.90;;;;;;4986050;28;20491;-66
2023/09/03 03:39:53;;;;;;;5.80;2.80;;;17.80;99.90;;;;;;4989706;28;20468;-66
2023/09/03 03:42:20;;;;;;;6.63;2.77;;;17.80;99.90;;;;;;4996475;28;20491;-66
2023/09/03 03:44:48;;;;;;;4.37;2.57;;;17.80;99.90;;;;;;4983310;28;20581;-66
2023/09/03 03:47:15;;;;;;;4.80;2.50;;;17.70;99.90;;;;;;4982948;28;20485;-66
2023/09/03 03:49:42;;;;;;;4.00;2.67;;;17.70;99.90;;;;;;4983281;28;20478;-66
2023/09/03 03:52:09;;;;;;;5.80;3.00;;;17.70;99.90;;;;;;4995661;28;20478;-65
2023/09/03 03:54:36;;;;;;;8.83;3.73;;;17.80;99.90;;;;;;4988656;28;20491;-66
2023/09/03 03:57:03;;;;;;;4.17;3.17;;;17.80;99.90;;;;;;4992230;28;20479;-66
2023/09/03 03:59:30;;;;;;;3.00;2.47;;;17.80;99.90;;;;;;4992316;28;20490;-66
2023/09/03 04:01:58;;;;;;;3.23;2.20;;;17.80;99.90;;;;;;4993659;28;20465;-66
2023/09/03 04:04:25;;;;;;;3.60;2.57;;;17.80;99.90;;;;;;4988739;28;20493;-66
2023/09/03 04:06:52;;;;;;;4.10;2.87;;;17.80;99.90;;;;;;4982617;28;20845;-66
2023/09/03 04:09:19;;;;;;;7.30;2.70;;;17.70;99.90;;;;;;4979195;28;20482;-66
2023/09/03 04:11:47;;;;;;;2.20;1.80;;;17.50;99.90;;;;;;4989329;28;20508;-66
2023/09/03 04:14:14;;;;;;;3.00;2.70;;;17.40;99.90;;;;;;4980533;28;21139;-66
2023/09/03 04:16:41;;;;;;;3.30;2.57;;;17.20;99.90;;;;;;4989905;28;20485;-66
2023/09/03 04:19:09;;;;;;;4.67;3.30;;;17.10;99.90;;;;;;4985180;28;20479;-66
2023/09/03 04:21:36;;;;;;;4.40;2.30;;;17.00;99.90;;;;;;4989591;28;20504;-66
2023/09/03 04:24:03;;;;;;;4.30;2.57;;;16.80;99.90;;;;;;4985090;28;20556;-66
2023/09/03 04:26:30;;;;;;;4.53;2.20;;;16.70;99.90;;;;;;4988186;28;20481;-66
2023/09/03 04:28:57;;;;;;;5.87;2.27;;;16.70;99.90;;;;;;4983685;28;21002;-66
2023/09/03 04:31:24;;;;;;;10.83;2.43;;;16.70;99.90;;;;;;4988147;28;20494;-66
2023/09/03 04:33:51;;;;;;;3.60;2.30;;;16.80;99.90;;;;;;4997493;28;20482;-66
2023/09/03 04:36:19;;;;;;;4.57;2.77;;;16.90;99.90;;;;;;4982978;28;20839;-66
2023/09/03 04:38:46;;;;;;;3.47;2.67;;;16.90;99.90;;;;;;4987069;28;20549;-66
2023/09/03 04:41:13;;;;;;;3.70;2.77;;;16.90;99.90;;;;;;4994054;28;21002;-66
2023/09/03 04:43:44;;;;;;;4.17;2.67;;;17.10;99.90;;;;;;4992202;28;20542;-66
2023/09/03 04:46:11;;;;;;;7.27;2.90;;;17.20;99.90;;;;;;4989949;28;20481;-66
2023/09/03 04:48:38;;;;;;;3.50;3.17;;;17.30;99.90;;;;;;4987945;28;21116;-66
2023/09/03 04:51:07;;;;;;;4.17;2.60;;;17.30;99.90;;;;;;4978822;28;20483;-67
2023/09/03 04:53:35;;;;;;;4.83;2.90;;;17.40;99.90;;;;;;4987896;28;20516;-67
2023/09/03 04:56:11;;;;;;;4.63;3.33;;;17.50;99.90;;;;;;4990238;28;20484;-67
2023/09/03 04:58:38;;;;;;;3.70;3.23;;;17.50;99.90;;;;;;4988285;28;20481;-67
2023/09/03 05:01:14;;;;;;;4.10;2.80;;;17.60;99.90;;;;;;4989003;28;20477;-69
2023/09/03 05:03:41;;;;;;;5.00;3.33;;;17.70;99.90;;;;;;4991400;28;20474;-68
2023/09/03 05:06:12;;;;;;;3.67;2.83;;;17.70;99.90;;;;;;4979694;28;20461;-68
2023/09/03 05:08:41;;;;;;;4.20;2.67;;;17.80;99.90;;;;;;5004576;28;20481;-68
2023/09/03 05:11:08;;;;;;;4.27;3.10;;;17.80;99.90;;;;;;4981741;28;20483;-68
2023/09/03 05:13:35;;;;;;;3.57;3.03;;;17.80;99.90;;;;;;4988911;28;20481;-68
2023/09/03 05:16:02;;;;;;;7.07;2.97;;;17.90;99.90;;;;;;4983599;28;20489;-68
2023/09/03 05:18:29;;;;;;;6.33;3.53;;;18.00;99.90;;;;;;4989423;28;20834;-68
2023/09/03 05:20:56;;;;;;;3.37;2.77;;;18.00;99.90;;;;;;4985465;28;20478;-67
2023/09/03 05:23:23;;;;;;;3.13;2.53;;;18.00;99.90;;;;;;4981829;28;20487;-67
2023/09/03 05:25:51;;;;;;;4.70;3.37;;;18.00;99.90;;;;;;4986395;28;20481;-67
2023/09/03 05:28:18;;;;;;;9.03;3.40;;;18.10;99.90;;;;;;4983336;28;20571;-67
2023/09/03 05:30:49;;;;;;;5.27;3.00;;;18.10;99.90;;;;;;4992157;28;20478;-67
2023/09/03 05:33:16;;;;;;;4.07;2.90;;;18.20;99.90;;;;;;4990163;28;20465;-67
2023/09/03 05:35:43;;;;;;;4.10;2.83;;;18.30;99.90;;;;;;5002922;28;21281;-67
2023/09/03 05:38:10;;;;;;;3.20;2.90;;;18.30;99.90;;;;;;4986465;28;20488;-67
2023/09/03 05:40:36;;;;;;;5.70;3.70;;;18.40;99.90;;;;;;4988898;28;20843;-67
2023/09/03 05:43:05;;;;;;;4.33;3.47;;;18.40;99.90;;;;;;4986603;28;20493;-67
2023/09/03 05:45:32;;;;;;;3.70;3.30;;;18.40;99.90;;;;;;4993268;28;20481;-67
2023/09/03 05:47:59;;;;;;;11.17;3.37;;;18.50;99.90;;;;;;4987169;28;20563;-67
2023/09/03 05:50:26;;;;;;;9.20;3.47;;;18.50;99.90;;;;;;5004985;28;21008;-67
2023/09/03 05:52:53;;;;;;;3.63;3.23;;;18.30;99.90;;;;;;4995983;28;20487;-67
2023/09/03 05:55:21;;;;;;;4.10;2.97;;;18.20;99.90;;;;;;4988442;28;20489;-67
2023/09/03 05:57:48;;;;;;;5.10;3.37;;;17.90;99.90;;;;;;4986661;28;20485;-67
2023/09/03 06:00:16;;;;;;;3.40;3.00;;;18.00;99.90;;;;;;5006766;28;20477;-67
2023/09/03 06:02:43;;;;;;;6.10;3.80;;;18.00;99.90;;;;;;4988646;28;20818;-67
2023/09/03 06:05:11;;;;;;;4.40;3.67;;;18.20;99.90;;;;;;4987261;28;20469;-67
2023/09/03 06:07:38;;;;;;;4.40;3.70;;;18.30;99.90;;;;;;4985584;28;20569;-67
2023/09/03 06:10:06;;;;;;;5.20;3.50;;;18.40;99.90;;;;;;5007938;28;20488;-67
2023/09/03 06:12:32;;;;;;;3.60;3.30;;;18.40;99.90;;;;;;4992811;28;20477;-66
2023/09/03 06:14:59;;;;;;;4.93;3.30;;;18.40;99.90;;;;;;4997259;28;20850;-67
2023/09/03 06:17:27;;;;;;;8.93;3.60;;;18.40;99.90;;;;;;4989870;28;20478;-67
2023/09/03 06:19:54;;;;;;;4.00;3.30;;;18.50;99.90;;;;;;4988752;28;20478;-67
2023/09/03 06:22:21;;;;;;;3.17;2.77;;;18.60;99.90;;;;;;4996543;28;20503;-68
2023/09/03 06:24:48;;;;;;;5.00;3.53;;;18.80;99.90;;;;;;4991874;28;20524;-68
2023/09/03 06:27:15;;;;;;;7.20;3.03;;;18.90;99.90;;;;;;4994328;28;20486;-68
2023/09/03 06:29:42;;;;;;;4.07;3.27;;;19.00;99.90;;;;;;4992884;28;20526;-68
2023/09/03 06:32:09;;;;;;;6.53;4.20;;;19.10;99.90;;;;;;4992496;28;20584;-68
2023/09/03 06:34:37;;;;;;;4.13;3.73;;;19.30;99.90;;;;;;4987108;28;20537;-67
2023/09/03 06:37:04;;;;;;;3.10;2.80;;;19.40;99.90;;;;;;4983831;28;20775;-68
2023/09/03 06:39:31;;;;;;;5.93;3.47;;;19.50;99.90;;;;;;4983298;28;20822;-68
2023/09/03 06:41:58;;;;;;;3.97;3.57;;;19.60;99.90;;;;;;4988085;28;20480;-68
2023/09/03 06:44:25;;;;;;;4.43;3.47;;;19.80;99.90;;;;;;5005032;28;20481;-68
2023/09/03 06:46:52;;;;;;;5.93;3.93;;;19.90;99.90;;;;;;4997474;28;20940;-68
2023/09/03 06:49:20;;;;;;;5.20;4.10;;;20.00;99.90;;;;;;4972773;28;20496;-68
2023/09/03 06:51:48;;;;;;;4.87;3.93;;;20.00;99.90;;;;;;4993419;28;20482;-68
2023/09/03 06:54:16;;;;;;;5.33;4.20;;;20.10;99.90;;;;;;4993870;28;20540;-68
2023/09/03 06:56:43;;;;;;;3.93;3.13;;;20.20;99.90;;;;;;4987026;28;20470;-68
2023/09/03 06:59:11;;;;;;;4.70;4.07;;;20.30;99.90;;;;;;4994070;28;21032;-68
2023/09/03 07:01:38;;;;;;;3.90;3.50;;;20.50;99.90;;;;;;4995002;28;20489;-68
2023/09/03 07:04:05;;;;;;;7.60;4.13;;;20.50;99.90;;;;;;4992091;28;20524;-67
2023/09/03 07:06:31;;;;;;;5.93;4.10;;;20.70;99.90;;;;;;4988445;28;20562;-68
2023/09/03 07:09:00;;;;;;;3.33;3.03;;;20.70;99.90;;;;;;4990372;28;20684;-68
2023/09/03 07:11:26;;;;;;;4.73;3.90;;;20.80;99.90;;;;;;4972120;28;20480;-67
2023/09/03 07:13:53;;;;;;;5.13;4.03;;;20.90;99.90;;;;;;5005390;28;20562;-68
2023/09/03 07:16:20;;;;;;;8.17;4.23;;;21.00;99.90;;;;;;4998022;28;20505;-67
2023/09/03 07:18:47;;;;;;;5.27;4.07;;;21.10;99.90;;;;;;4993828;28;20984;-67
2023/09/03 07:21:14;;;;;;;5.87;4.60;;;21.10;99.90;;;;;;4982346;28;21007;-67
2023/09/03 07:23:41;;;;;;;5.33;4.37;;;21.30;99.90;;;;;;4991825;28;21245;-67
2023/09/03 07:26:09;;;;;;;4.97;4.20;;;21.40;99.90;;;;;;4985051;28;21250;-67
2023/09/03 07:28:38;;;;;;;8.60;4.93;;;21.60;99.90;;;;;;4987655;28;20488;-67
2023/09/03 07:31:05;;;;;;;4.10;3.47;;;21.90;99.90;;;;;;4991069;28;20452;-67
2023/09/03 07:33:32;;;;;;;5.87;4.20;;;22.10;99.90;;;;;;4994634;28;20558;-67
2023/09/03 07:35:59;;;;;;;10.60;4.70;;;22.40;99.90;;;;;;4981693;28;20955;-67
2023/09/03 07:38:27;;;;;;;4.80;3.50;;;22.80;99.90;;;;;;4984945;28;20466;-67
2023/09/03 07:40:54;;;;;;;5.20;3.50;;;23.10;99.90;;;;;;4987330;28;20962;-67
2023/09/03 07:43:22;;;;;;;4.90;3.40;;;23.40;99.90;;;;;;4977149;28;20556;-67
2023/09/03 07:45:50;;;;;;;4.20;3.63;;;23.70;99.90;;;;;;4983259;28;20456;-67
2023/09/03 07:48:17;;;;;;;3.93;3.53;;;24.00;99.90;;;;;;4981534;28;20886;-67
2023/09/03 07:50:44;;;;;;;3.33;2.97;;;24.20;99.90;;;;;;4989565;28;20532;-67
2023/09/03 07:53:10;;;;;;;4.20;3.00;;;24.30;99.90;;;;;;4994498;28;21010;-67
2023/09/03 07:55:37;;;;;;;3.67;3.00;;;24.50;99.90;;;;;;4988654;28;20493;-67
2023/09/03 07:58:05;;;;;;;5.37;3.10;;;24.60;99.90;;;;;;4977760;28;20482;-67
2023/09/03 08:00:33;;;;;;;3.57;3.20;;;24.70;99.90;;;;;;4987803;28;20464;-67
2023/09/03 08:03:00;;;;;;;4.77;3.70;;;24.90;99.90;;;;;;4989548;28;20489;-66
2023/09/03 08:05:28;;;;;;;3.80;2.70;;;24.90;99.90;;;;;;4978155;28;20453;-66
2023/09/03 08:07:55;;;;;;;4.87;2.70;;;25.00;99.90;;;;;;4975229;28;20834;-66
2023/09/03 08:10:22;;;;;;;3.60;2.33;;;25.10;99.90;;;;;;4988017;28;20484;-67
2023/09/03 08:12:50;;;;;;;2.97;2.47;;;25.20;99.90;;;;;;4990717;28;20469;-67
2023/09/03 08:15:17;;;;;;;7.93;2.87;;;25.30;99.90;;;;;;5000908;28;20456;-67
2023/09/03 08:17:45;;;;;;;3.90;2.30;;;25.30;99.90;;;;;;4989771;28;20452;-67
2023/09/03 08:20:13;;;;;;;3.97;2.60;;;25.50;99.90;;;;;;4980391;28;20496;-67
2023/09/03 08:22:39;;;;;;;2.73;2.40;;;25.60;99.90;;;;;;4989216;28;20456;-67
2023/09/03 08:25:07;;;;;;;4.10;3.00;;;25.70;99.90;;;;;;4990646;28;20464;-67
2023/09/03 08:27:34;;;;;;;3.57;3.00;;;25.90;99.90;;;;;;4988151;28;20478;-67
2023/09/03 08:30:10;;;;;;;4.00;2.30;;;26.00;99.90;;;;;;4992020;28;20921;-67
2023/09/03 08:32:36;;;;;;;2.10;1.90;;;26.10;99.90;;;;;;4985689;28;20447;-67
2023/09/03 08:35:06;;;;;;;3.53;3.13;;;26.10;99.90;;;;;;4990482;28;20549;-67
2023/09/03 08:37:33;;;;;;;4.00;2.37;;;26.20;99.90;;;;;;4980176;28;20828;-67
2023/09/03 08:40:00;;;;;;;2.50;1.90;;;26.20;99.90;;;;;;4986875;28;21023;-67
2023/09/03 08:42:29;;;;;;;5.57;2.60;;;26.40;99.90;;;;;;4993065;28;20453;-68
2023/09/03 08:45:03;;;;;;;2.50;2.10;;;26.60;99.90;;;;;;4990515;28;20479;-67
2023/09/03 08:47:31;;;;;;;2.80;1.87;;;26.70;99.90;;;;;;4975808;28;20522;-67
2023/09/03 08:50:00;;;;;;;2.37;2.17;;;26.80;99.90;;;;;;4997213;28;21196;-67
2023/09/03 08:52:29;;;;;;;2.40;1.87;;;26.90;99.90;;;;;;4962798;28;20461;-68
2023/09/03 08:54:56;;;;;;;2.23;1.80;;;27.00;99.90;;;;;;4988419;28;20559;-67
2023/09/03 08:57:28;;;;;;;3.10;2.90;;;27.10;99.90;;;;;;4992342;28;20452;-68
2023/09/03 08:59:56;;;;;;;2.67;2.10;;;27.10;99.90;;;;;;4990034;28;20467;-68
2023/09/03 09:02:26;;;;;;;1.97;1.47;;;27.10;99.90;;;;;;5000231;28;20450;-67
2023/09/03 09:04:53;;;;;;;4.60;2.10;;;27.10;99.90;;;;;;4985397;28;20459;-67
2023/09/03 09:07:20;;;;;;;2.50;1.77;;;27.20;99.90;;;;;;4990396;28;20471;-68
2023/09/03 09:09:51;;;;;;;2.40;1.97;;;27.20;99.70;;;;;;4992271;28;20551;-68
2023/09/03 09:12:22;;;;;;;2.30;1.67;;;27.30;99.80;;;;;;5001727;28;20534;-68
2023/09/03 09:15:46;;;;;;;3.30;2.20;;;27.40;99.90;;;;;;4985468;28;20559;-67
2023/09/03 09:18:42;;;;;;;2.60;1.57;;;27.40;99.10;;;;;;4985086;28;20478;-67
2023/09/03 09:21:09;;;;;;;3.60;1.80;;;27.40;99.10;;;;;;4993231;28;20482;-67
2023/09/03 09:23:36;;;;;;;3.33;1.83;;;27.40;98.40;;;;;;5005421;28;20838;-67
2023/09/03 09:26:16;;;;;;;3.23;1.47;;;27.20;98.30;;;;;;4993926;28;20490;-67
2023/09/03 09:28:57;;;;;;;3.37;1.87;;;27.20;98.90;;;;;;4989820;28;20532;-67
2023/09/03 09:31:28;;;;;;;2.23;1.50;;;27.20;99.20;;;;;;4981992;28;20453;-67
2023/09/03 09:33:56;;;;;;;2.40;1.97;;;27.10;98.70;;;;;;4994114;28;20455;-67
2023/09/03 09:36:23;;;;;;;2.20;1.30;;;27.10;98.40;;;;;;4990219;28;20501;-67
2023/09/03 09:38:51;;;;;;;2.27;1.60;;;27.10;98.70;;;;;;4998044;28;20873;-67
2023/09/03 09:41:24;;;;;;;2.80;1.70;;;27.20;99.30;;;;;;4998296;28;20466;-69
2023/09/03 09:43:51;;;;;;;2.90;2.20;;;27.30;99.20;;;;;;4994552;28;20495;-68
2023/09/03 09:46:29;;;;;;;2.90;2.10;;;27.40;99.40;;;;;;4986512;28;20796;-69
2023/09/03 09:48:57;;;;;;;3.13;2.00;;;27.40;98.80;;;;;;4988485;28;20576;-68
2023/09/03 09:51:24;;;;;;;2.27;1.60;;;27.50;98.30;;;;;;4988208;28;20470;-67
2023/09/03 09:53:58;;;;;;;2.20;1.80;;;27.50;98.30;;;;;;4994714;28;20468;-67
2023/09/03 09:56:30;;;;;;;2.97;2.07;;;27.40;98.30;;;;;;4996510;28;20463;-67
2023/09/03 09:58:58;;;;;;;2.33;1.80;;;27.40;99.00;;;;;;4985472;28;20792;-67
2023/09/03 10:01:27;;;;;;;2.93;2.37;;;27.50;98.70;;;;;;4986341;28;20501;-67
2023/09/03 10:03:54;;;;;;;2.00;1.60;;;27.50;98.20;;;;;;4996751;28;20465;-67
2023/09/03 10:06:23;;;;;;;2.63;2.10;;;27.60;98.90;;;;;;4991975;28;20588;-67
2023/09/03 10:08:51;;;;;;;3.07;1.90;;;27.70;98.00;;;;;;4991834;28;20456;-67
2023/09/03 10:11:19;;;;;;;2.17;1.97;;;27.90;98.80;;;;;;4991398;28;20988;-67
2023/09/03 10:13:48;;;;;;;2.17;1.60;;;28.00;98.20;;;;;;4987032;28;20465;-67
2023/09/03 10:16:18;;;;;;;3.07;1.93;;;28.00;98.00;;;;;;4988927;28;20478;-68
2023/09/03 10:18:47;;;;;;;2.40;1.90;;;28.00;97.60;;;;;;4990121;28;20476;-67
2023/09/03 10:21:18;;;;;;;2.10;1.60;;;28.10;97.30;;;;;;4986139;28;21000;-67
2023/09/03 10:23:49;;;;;;;2.10;1.60;;;28.20;97.70;;;;;;4985682;28;20460;-67
2023/09/03 10:26:21;;;;;;;1.93;1.70;;;28.30;97.50;;;;;;4986563;28;20461;-67
2023/09/03 10:28:53;;;;;;;2.07;1.40;;;28.40;97.60;;;;;;4990517;28;20456;-67
2023/09/03 10:31:23;;;;;;;2.70;1.93;;;28.50;96.80;;;;;;4990863;28;20573;-67
2023/09/03 10:33:50;;;;;;;2.03;1.60;;;28.70;97.50;;;;;;4989151;28;20577;-67
2023/09/03 10:36:18;;;;;;;3.27;1.60;;;28.80;96.90;;;;;;4983985;28;20909;-67
2023/09/03 10:38:46;;;;;;;2.43;1.90;;;28.80;97.00;;;;;;4983556;28;20493;-67
2023/09/03 10:41:17;;;;;;;3.90;2.40;;;28.90;96.90;;;;;;4982361;28;20470;-67
2023/09/03 10:43:45;;;;;;;2.43;1.40;;;29.00;97.10;;;;;;4997615;28;20891;-67
2023/09/03 10:46:13;;;;;;;2.70;1.63;;;29.00;96.40;;;;;;4989896;28;20846;-67
2023/09/03 10:48:41;;;;;;;2.50;1.60;;;29.10;97.20;;;;;;4984586;28;20820;-67
2023/09/03 10:51:08;;;;;;;1.80;1.10;;;29.10;95.90;;;;;;4991600;28;20476;-69
2023/09/03 10:53:36;;;;;;;2.60;1.67;;;29.10;96.20;;;;;;4991847;28;20817;-69
2023/09/03 10:56:09;;;;;;;1.80;1.33;;;29.20;96.30;;;;;;4969527;28;20555;-68
2023/09/03 10:58:36;;;;;;;1.97;1.40;;;29.20;96.20;;;;;;4973756;28;21007;-69
2023/09/03 11:01:20;;;;;;;4.30;1.70;;;29.30;96.30;;;;;;4998880;28;20568;-69
2023/09/03 11:03:49;;;;;;;2.77;1.77;;;29.40;96.00;;;;;;4988728;28;20490;-70
2023/09/03 11:06:17;;;;;;;3.23;2.07;;;29.40;96.00;;;;;;4994554;28;20621;-68
2023/09/03 11:08:45;;;;;;;3.13;1.50;;;29.50;96.30;;;;;;4980714;28;20857;-69
2023/09/03 11:11:18;;;;;;;4.03;1.73;;;29.60;96.30;;;;;;4986326;28;20463;-69
2023/09/03 11:13:50;;;;;;;2.30;1.70;;;29.70;96.00;;;;;;4986083;28;20917;-68
2023/09/03 11:16:17;;;;;;;6.10;1.90;;;29.80;96.20;;;;;;4991539;28;21017;-68
2023/09/03 11:18:49;;;;;;;2.20;1.50;;;29.90;95.20;;;;;;4983773;28;20484;-69
2023/09/03 11:21:17;;;;;;;2.27;1.73;;;30.00;95.70;;;;;;5000940;28;20500;-68
2023/09/03 11:24:00;;;;;;;2.07;1.53;;;30.00;93.90;;;;;;4993258;28;20543;-69
2023/09/03 11:26:26;;;;;;;2.53;1.50;;;30.00;95.10;;;;;;4985145;28;20882;-69
2023/09/03 11:28:53;;;;;;;2.43;1.87;;;30.10;96.00;;;;;;4983213;28;20482;-68
2023/09/03 11:31:20;;;;;;;1.97;1.67;;;30.20;95.60;;;;;;4981191;28;20907;-69
2023/09/03 11:33:50;;;;;;;2.57;1.57;;;30.30;94.70;;;;;;4996296;28;20552;-68
2023/09/03 11:36:21;;;;;;;2.87;1.87;;;30.40;94.90;;;;;;4991155;28;20870;-69
2023/09/03 11:38:48;;;;;;;2.17;1.50;;;30.50;95.10;;;;;;4986466;28;20473;-68
2023/09/03 11:41:17;;;;;;;5.40;1.70;;;30.60;95.60;;;;;;4988015;28;20901;-68
2023/09/03 11:43:44;;;;;;;2.30;1.60;;;30.70;95.10;;;;;;4989466;28;20578;-68
2023/09/03 11:46:15;;;;;;;1.93;1.40;;;30.60;94.00;;;;;;4995096;28;20465;-69
2023/09/03 11:48:43;;;;;;;2.40;1.93;;;30.60;94.90;;;;;;4980282;28;20547;-68
2023/09/03 11:51:11;;;;;;;2.20;1.67;;;30.70;94.70;;;;;;4982989;28;20480;-68
2023/09/03 11:53:43;;;;;;;2.07;1.57;;;30.70;95.50;;;;;;4978755;28;20691;-68
2023/09/03 11:56:14;;;;;;;4.50;1.53;;;30.90;94.80;;;;;;4976862;28;20471;-68
2023/09/03 11:58:42;;;;;;;3.27;1.90;;;30.90;94.50;;;;;;4974881;28;20485;-68
2023/09/03 12:01:09;;;;;;;2.70;1.73;;;31.00;94.00;;;;;;4977338;28;20497;-69
2023/09/03 12:03:39;;;;;;;2.20;1.77;;;31.00;94.30;;;;;;4995148;28;20482;-69
2023/09/03 12:06:06;;;;;;;2.57;1.70;;;31.00;93.90;;;;;;4984213;28;20486;-69
2023/09/03 12:08:34;;;;;;;2.50;1.43;;;31.10;94.10;;;;;;4990810;28;20461;-69
2023/09/03 12:11:01;;;;;;;2.00;1.70;;;31.00;93.20;;;;;;4986842;28;20509;-69
2023/09/03 12:13:39;;;;;;;2.10;1.60;;;31.00;93.30;;;;;;4993201;28;21022;-69
2023/09/03 12:16:07;;;;;;;2.10;1.23;;;31.00;93.40;;;;;;4986514;28;20457;-69
2023/09/03 12:18:35;;;;;;;2.00;1.50;;;31.10;93.70;;;;;;4986854;28;20476;-68
2023/09/03 12:21:02;;;;;;;2.20;1.40;;;31.20;94.30;;;;;;4985458;28;20481;-68
2023/09/03 12:23:30;;;;;;;2.10;1.50;;;31.00;93.00;;;;;;4998425;28;20478;-69
2023/09/03 12:25:58;;;;;;;2.57;1.53;;;31.10;93.50;;;;;;4990433;28;20529;-69
2023/09/03 12:28:38;;;;;;;2.30;2.03;;;31.20;93.90;;;;;;4982780;28;20572;-69
2023/09/03 12:31:06;;;;;;;2.10;1.50;;;31.20;93.60;;;;;;4988873;28;20876;-70
2023/09/03 12:33:48;;;;;;;2.80;1.20;;;31.00;92.90;;;;;;4996274;28;20478;-69
2023/09/03 12:36:16;;;;;;;2.50;1.60;;;30.90;93.00;;;;;;4978761;28;20546;-68
2023/09/03 12:38:54;;;;;;;1.80;1.17;;;30.80;93.60;;;;;;4991357;28;20478;-68
2023/09/03 12:41:24;;;;;;;2.00;1.73;;;30.80;92.90;;;;;;4992652;28;20882;-69
2023/09/03 12:43:51;;;;;;;3.50;1.80;;;31.00;94.60;;;;;;4995858;28;20463;-69
2023/09/03 12:46:18;;;;;;;2.30;1.70;;;31.00;93.50;;;;;;4991564;28;20466;-68
2023/09/03 12:48:45;;;;;;;2.10;1.80;;;30.90;93.10;;;;;;4989971;28;20564;-69
2023/09/03 12:51:12;;;;;;;2.00;1.33;;;31.00;92.80;;;;;;4991253;28;20934;-69
2023/09/03 12:53:40;;;;;;;2.30;1.50;;;31.20;93.20;;;;;;4991615;28;20480;-69